sensor_id;sensor_type;location;lat;lon;timestamp;temperature;humidity
15257;DHT22;7731;50.720;6.912;2023-09-19T00:01:24;16.30;1.00
15257;DHT22;7731;50.720;6.912;2023-09-19T00:03:55;16.30;1.00
15257;DHT22;7731;50.720;6.912;2023-09-19T00:06:30;16.30;1.00
15257;DHT22;7731;50.720;6.912;2023-09-19T00:09:00;16.30;1.00
15257;DHT22;7731;50.720;6.912;2023-09-19T00:11:35;16.30;1.00
15257;DHT22;7731;50.720;6.912;2023-09-19T00:14:05;16.30;1.00
15257;DHT22;7731;50.720;6.912;2023-09-19T00:16:36;16.30;1.00
15257;DHT22;7731;50.720;6.912;2023-09-19T00:19:08;16.30;1.00
15257;DHT22;7731;50.720;6.912;2023-09-19T00:21:38;16.30;1.00
15257;DHT22;7731;50.720;6.912;2023-09-19T00:24:09;16.30;1.00
15257;DHT22;7731;50.720;6.912;2023-09-19T00:26:42;16.40;99.90
15257;DHT22;7731;50.720;6.912;2023-09-19T00:29:14;16.40;99.90
15257;DHT22;7731;50.720;6.912;2023-09-19T00:31:48;16.40;99.90
15257;DHT22;7731;50.720;6.912;2023-09-19T00:34:18;16.40;99.90
15257;DHT22;7731;50.720;6.912;2023-09-19T00:36:50;16.30;99.90
15257;DHT22;7731;50.720;6.912;2023-09-19T00:39:22;16.30;99.90
15257;DHT22;7731;50.720;6.912;2023-09-19T00:42:01;16.30;99.90
15257;DHT22;7731;50.720;6.912;2023-09-19T00:44:32;16.30;99.90
15257;DHT22;7731;50.720;6.912;2023-09-19T00:47:04;16.30;99.90
15257;DHT22;7731;50.720;6.912;2023-09-19T00:49:36;16.30;1.00
15257;DHT22;7731;50.720;6.912;2023-09-19T00:52:07;16.30;99.90
15257;DHT22;7731;50.720;6.912;2023-09-19T00:54:38;16.30;1.00
15257;DHT22;7731;50.720;6.912;2023-09-19T00:57:14;16.30;1.00
15257;DHT22;7731;50.720;6.912;2023-09-19T00:59:47;16.30;1.00
15257;DHT22;7731;50.720;6.912;2023-09-19T01:02:20;16.40;99.90
15257;DHT22;7731;50.720;6.912;2023-09-19T01:04:51;16.50;1.00
15257;DHT22;7731;50.720;6.912;2023-09-19T01:07:21;16.50;1.00
15257;DHT22;7731;50.720;6.912;2023-09-19T01:09:52;16.60;5.20
15257;DHT22;7731;50.720;6.912;2023-09-19T01:12:30;16.50;99.90
15257;DHT22;7731;50.720;6.912;2023-09-19T01:15:17;16.60;1.00
15257;DHT22;7731;50.720;6.912;2023-09-19T01:18:02;16.70;99.90
15257;DHT22;7731;50.720;6.912;2023-09-19T01:20:45;16.80;1.00
15257;DHT22;7731;50.720;6.912;2023-09-19T01:23:29;16.80;84.30
15257;DHT22;7731;50.720;6.912;2023-09-19T01:26:32;16.80;99.90
15257;DHT22;7731;50.720;6.912;2023-09-19T01:29:34;16.80;1.00
15257;DHT22;7731;50.720;6.912;2023-09-19T01:32:16;16.80;99.90
15257;DHT22;7731;50.720;6.912;2023-09-19T01:34:52;16.70;82.60
15257;DHT22;7731;50.720;6.912;2023-09-19T01:37:24;16.70;1.00
15257;DHT22;7731;50.720;6.912;2023-09-19T01:40:00;16.70;1.00
15257;DHT22;7731;50.720;6.912;2023-09-19T01:42:49;16.70;99.90
15257;DHT22;7731;50.720;6.912;2023-09-19T01:45:32;16.70;99.90
15257;DHT22;7731;50.720;6.912;2023-09-19T01:48:21;16.60;1.00
15257;DHT22;7731;50.720;6.912;2023-09-19T01:51:06;16.70;1.00
15257;DHT22;7731;50.720;6.912;2023-09-19T01:53:45;16.70;99.90
15257;DHT22;7731;50.720;6.912;2023-09-19T01:56:29;16.70;99.90
15257;DHT22;7731;50.720;6.912;2023-09-19T01:59:09;16.60;99.90
15257;DHT22;7731;50.720;6.912;2023-09-19T02:01:44;16.60;87.60
15257;DHT22;7731;50.720;6.912;2023-09-19T02:04:19;16.60;99.90
15257;DHT22;7731;50.720;6.912;2023-09-19T02:06:49;16.50;34.40
15257;DHT22;7731;50.720;6.912;2023-09-19T02:09:19;16.40;99.90
15257;DHT22;7731;50.720;6.912;2023-09-19T02:11:50;16.30;99.90
15257;DHT22;7731;50.720;6.912;2023-09-19T02:14:23;16.30;99.90
15257;DHT22;7731;50.720;6.912;2023-09-19T02:16:55;16.30;1.00
15257;DHT22;7731;50.720;6.912;2023-09-19T02:19:29;16.30;1.00
15257;DHT22;7731;50.720;6.912;2023-09-19T02:22:00;16.20;1.00
15257;DHT22;7731;50.720;6.912;2023-09-19T02:24:36;16.20;1.00
15257;DHT22;7731;50.720;6.912;2023-09-19T02:27:06;16.10;99.90
15257;DHT22;7731;50.720;6.912;2023-09-19T02:29:41;16.10;1.00
15257;DHT22;7731;50.720;6.912;2023-09-19T02:32:11;16.10;99.90
15257;DHT22;7731;50.720;6.912;2023-09-19T02:34:44;16.00;99.90
15257;DHT22;7731;50.720;6.912;2023-09-19T02:37:15;15.90;1.00
15257;DHT22;7731;50.720;6.912;2023-09-19T02:39:46;15.80;99.90
15257;DHT22;7731;50.720;6.912;2023-09-19T02:42:17;15.80;1.00
15257;DHT22;7731;50.720;6.912;2023-09-19T02:44:47;15.90;99.90
15257;DHT22;7731;50.720;6.912;2023-09-19T02:47:18;15.80;1.00
15257;DHT22;7731;50.720;6.912;2023-09-19T02:49:51;15.70;99.90
15257;DHT22;7731;50.720;6.912;2023-09-19T02:52:21;15.80;1.00
15257;DHT22;7731;50.720;6.912;2023-09-19T02:54:52;15.80;1.00
15257;DHT22;7731;50.720;6.912;2023-09-19T02:57:22;15.60;99.90
15257;DHT22;7731;50.720;6.912;2023-09-19T02:59:54;15.60;99.90
15257;DHT22;7731;50.720;6.912;2023-09-19T03:02:27;15.60;1.00
15257;DHT22;7731;50.720;6.912;2023-09-19T03:05:03;15.60;99.90
15257;DHT22;7731;50.720;6.912;2023-09-19T03:07:34;15.60;1.00
15257;DHT22;7731;50.720;6.912;2023-09-19T03:10:10;15.60;1.00
15257;DHT22;7731;50.720;6.912;2023-09-19T03:12:43;15.50;1.00
15257;DHT22;7731;50.720;6.912;2023-09-19T03:15:14;15.50;1.00
15257;DHT22;7731;50.720;6.912;2023-09-19T03:17:47;15.50;1.00
15257;DHT22;7731;50.720;6.912;2023-09-19T03:20:21;15.50;1.00
15257;DHT22;7731;50.720;6.912;2023-09-19T03:22:54;15.50;1.00
15257;DHT22;7731;50.720;6.912;2023-09-19T03:25:34;15.50;99.90
15257;DHT22;7731;50.720;6.912;2023-09-19T03:28:05;15.50;1.00
15257;DHT22;7731;50.720;6.912;2023-09-19T03:30:39;15.50;1.00
15257;DHT22;7731;50.720;6.912;2023-09-19T03:33:09;15.50;1.00
15257;DHT22;7731;50.720;6.912;2023-09-19T03:35:52;15.50;99.90
15257;DHT22;7731;50.720;6.912;2023-09-19T03:38:25;15.40;99.90
15257;DHT22;7731;50.720;6.912;2023-09-19T03:40:56;15.50;99.90
15257;DHT22;7731;50.720;6.912;2023-09-19T03:43:26;15.40;99.90
15257;DHT22;7731;50.720;6.912;2023-09-19T03:45:56;15.30;1.00
15257;DHT22;7731;50.720;6.912;2023-09-19T03:48:32;15.30;1.00
15257;DHT22;7731;50.720;6.912;2023-09-19T03:51:07;15.30;1.00
15257;DHT22;7731;50.720;6.912;2023-09-19T03:53:38;15.20;99.90
15257;DHT22;7731;50.720;6.912;2023-09-19T03:56:08;15.20;1.00
15257;DHT22;7731;50.720;6.912;2023-09-19T03:58:38;15.20;1.00
15257;DHT22;7731;50.720;6.912;2023-09-19T04:01:09;15.30;1.00
15257;DHT22;7731;50.720;6.912;2023-09-19T04:03:40;15.40;1.00
15257;DHT22;7731;50.720;6.912;2023-09-19T04:06:42;15.40;1.00
15257;DHT22;7731;50.720;6.912;2023-09-19T04:09:12;15.40;1.00
15257;DHT22;7731;50.720;6.912;2023-09-19T04:11:43;15.40;1.00
15257;DHT22;7731;50.720;6.912;2023-09-19T04:14:13;15.40;1.00
15257;DHT22;7731;50.720;6.912;2023-09-19T04:16:43;15.50;90.90
15257;DHT22;7731;50.720;6.912;2023-09-19T04:19:13;15.50;1.00
15257;DHT22;7731;50.720;6.912;2023-09-19T04:21:47;15.60;1.00
15257;DHT22;7731;50.720;6.912;2023-09-19T04:24:17;15.50;1.00
15257;DHT22;7731;50.720;6.912;2023-09-19T04:26:47;15.40;1.00
15257;DHT22;7731;50.720;6.912;2023-09-19T04:29:18;15.50;1.00
15257;DHT22;7731;50.720;6.912;2023-09-19T04:31:48;15.50;99.90
15257;DHT22;7731;50.720;6.912;2023-09-19T04:34:19;15.50;88.20
15257;DHT22;7731;50.720;6.912;2023-09-19T04:36:53;15.40;99.90
15257;DHT22;7731;50.720;6.912;2023-09-19T04:39:26;15.40;96.00
15257;DHT22;7731;50.720;6.912;2023-09-19T04:41:56;15.40;99.90
15257;DHT22;7731;50.720;6.912;2023-09-19T04:44:27;15.30;1.00
15257;DHT22;7731;50.720;6.912;2023-09-19T04:46:57;15.40;1.00
15257;DHT22;7731;50.720;6.912;2023-09-19T04:49:28;15.30;99.90
15257;DHT22;7731;50.720;6.912;2023-09-19T04:52:01;15.30;1.00
15257;DHT22;7731;50.720;6.912;2023-09-19T04:54:31;15.20;65.80
15257;DHT22;7731;50.720;6.912;2023-09-19T04:57:01;15.20;99.90
15257;DHT22;7731;50.720;6.912;2023-09-19T04:59:33;15.20;24.90
15257;DHT22;7731;50.720;6.912;2023-09-19T05:02:04;15.20;65.60
15257;DHT22;7731;50.720;6.912;2023-09-19T05:04:35;15.20;18.60
15257;DHT22;7731;50.720;6.912;2023-09-19T05:07:10;15.30;99.90
15257;DHT22;7731;50.720;6.912;2023-09-19T05:09:41;15.30;1.00
15257;DHT22;7731;50.720;6.912;2023-09-19T05:12:12;15.30;31.50
15257;DHT22;7731;50.720;6.912;2023-09-19T05:14:46;15.20;99.90
15257;DHT22;7731;50.720;6.912;2023-09-19T05:17:16;15.00;99.90
15257;DHT22;7731;50.720;6.912;2023-09-19T05:19:47;14.90;99.90
15257;DHT22;7731;50.720;6.912;2023-09-19T05:22:20;14.90;99.90
15257;DHT22;7731;50.720;6.912;2023-09-19T05:24:51;14.90;99.90
15257;DHT22;7731;50.720;6.912;2023-09-19T05:27:21;15.00;1.00
15257;DHT22;7731;50.720;6.912;2023-09-19T05:29:52;15.00;1.00
15257;DHT22;7731;50.720;6.912;2023-09-19T05:32:22;15.00;1.00
15257;DHT22;7731;50.720;6.912;2023-09-19T05:34:53;14.90;1.00
15257;DHT22;7731;50.720;6.912;2023-09-19T05:37:26;14.80;96.10
15257;DHT22;7731;50.720;6.912;2023-09-19T05:39:56;14.90;1.00
15257;DHT22;7731;50.720;6.912;2023-09-19T05:42:27;15.00;1.00
15257;DHT22;7731;50.720;6.912;2023-09-19T05:44:57;15.00;1.00
15257;DHT22;7731;50.720;6.912;2023-09-19T05:47:28;15.10;1.00
15257;DHT22;7731;50.720;6.912;2023-09-19T05:49:58;15.10;1.00
15257;DHT22;7731;50.720;6.912;2023-09-19T05:52:32;15.10;99.90
15257;DHT22;7731;50.720;6.912;2023-09-19T05:55:06;15.20;1.00
15257;DHT22;7731;50.720;6.912;2023-09-19T05:57:38;15.20;99.90
15257;DHT22;7731;50.720;6.912;2023-09-19T06:00:15;15.30;99.90
15257;DHT22;7731;50.720;6.912;2023-09-19T06:02:50;15.30;19.70
15257;DHT22;7731;50.720;6.912;2023-09-19T06:05:21;15.40;1.00
15257;DHT22;7731;50.720;6.912;2023-09-19T06:07:54;15.40;99.90
15257;DHT22;7731;50.720;6.912;2023-09-19T06:10:28;15.50;1.00
15257;DHT22;7731;50.720;6.912;2023-09-19T06:12:59;15.60;1.00
15257;DHT22;7731;50.720;6.912;2023-09-19T06:15:31;15.60;99.90
15257;DHT22;7731;50.720;6.912;2023-09-19T06:18:03;15.70;92.80
15257;DHT22;7731;50.720;6.912;2023-09-19T06:20:35;15.70;1.00
15257;DHT22;7731;50.720;6.912;2023-09-19T06:23:15;15.80;1.00
15257;DHT22;7731;50.720;6.912;2023-09-19T06:25:47;16.00;1.00
15257;DHT22;7731;50.720;6.912;2023-09-19T06:28:20;16.10;99.90
15257;DHT22;7731;50.720;6.912;2023-09-19T06:30:51;16.10;61.60
15257;DHT22;7731;50.720;6.912;2023-09-19T06:33:21;16.20;1.00
15257;DHT22;7731;50.720;6.912;2023-09-19T06:35:53;16.30;1.00
15257;DHT22;7731;50.720;6.912;2023-09-19T06:38:29;16.40;1.00
15257;DHT22;7731;50.720;6.912;2023-09-19T06:41:02;16.50;1.00
15257;DHT22;7731;50.720;6.912;2023-09-19T06:43:37;16.70;99.90
15257;DHT22;7731;50.720;6.912;2023-09-19T06:46:08;16.70;99.90
15257;DHT22;7731;50.720;6.912;2023-09-19T06:48:39;16.90;99.90
15257;DHT22;7731;50.720;6.912;2023-09-19T06:51:11;17.10;99.90
15257;DHT22;7731;50.720;6.912;2023-09-19T06:53:45;17.20;81.50
15257;DHT22;7731;50.720;6.912;2023-09-19T06:56:16;17.20;93.30
15257;DHT22;7731;50.720;6.912;2023-09-19T06:58:46;17.40;1.00
15257;DHT22;7731;50.720;6.912;2023-09-19T07:01:16;17.50;1.00
15257;DHT22;7731;50.720;6.912;2023-09-19T07:03:47;17.50;1.00
15257;DHT22;7731;50.720;6.912;2023-09-19T07:06:17;17.70;1.00
15257;DHT22;7731;50.720;6.912;2023-09-19T07:08:50;17.80;1.00
15257;DHT22;7731;50.720;6.912;2023-09-19T07:11:21;17.90;1.00
15257;DHT22;7731;50.720;6.912;2023-09-19T07:13:51;18.10;1.00
15257;DHT22;7731;50.720;6.912;2023-09-19T07:16:21;18.30;1.00
15257;DHT22;7731;50.720;6.912;2023-09-19T07:18:57;18.40;1.00
15257;DHT22;7731;50.720;6.912;2023-09-19T07:21:29;18.50;1.00
15257;DHT22;7731;50.720;6.912;2023-09-19T07:24:02;18.80;1.00
15257;DHT22;7731;50.720;6.912;2023-09-19T07:26:35;19.00;1.00
15257;DHT22;7731;50.720;6.912;2023-09-19T07:29:07;19.10;1.00
15257;DHT22;7731;50.720;6.912;2023-09-19T07:31:37;19.40;1.00
15257;DHT22;7731;50.720;6.912;2023-09-19T07:34:07;19.80;1.00
15257;DHT22;7731;50.720;6.912;2023-09-19T07:36:41;20.20;1.00
15257;DHT22;7731;50.720;6.912;2023-09-19T07:39:14;20.60;1.00
15257;DHT22;7731;50.720;6.912;2023-09-19T07:41:49;20.90;1.00
15257;DHT22;7731;50.720;6.912;2023-09-19T07:44:21;21.50;99.90
15257;DHT22;7731;50.720;6.912;2023-09-19T07:46:52;21.80;99.90
15257;DHT22;7731;50.720;6.912;2023-09-19T07:49:23;22.10;99.90
15257;DHT22;7731;50.720;6.912;2023-09-19T07:51:54;21.80;99.90
15257;DHT22;7731;50.720;6.912;2023-09-19T07:54:28;22.30;99.90
15257;DHT22;7731;50.720;6.912;2023-09-19T07:57:04;22.20;99.90
15257;DHT22;7731;50.720;6.912;2023-09-19T07:59:34;22.40;99.90
15257;DHT22;7731;50.720;6.912;2023-09-19T08:02:05;22.20;99.90
15257;DHT22;7731;50.720;6.912;2023-09-19T08:04:43;21.70;99.90
15257;DHT22;7731;50.720;6.912;2023-09-19T08:07:14;21.30;99.90
15257;DHT22;7731;50.720;6.912;2023-09-19T08:09:48;21.70;99.90
15257;DHT22;7731;50.720;6.912;2023-09-19T08:12:18;21.80;99.90
15257;DHT22;7731;50.720;6.912;2023-09-19T08:14:51;21.80;99.90
15257;DHT22;7731;50.720;6.912;2023-09-19T08:17:24;21.90;99.90
15257;DHT22;7731;50.720;6.912;2023-09-19T08:19:55;22.10;99.90
15257;DHT22;7731;50.720;6.912;2023-09-19T08:22:25;22.40;99.90
15257;DHT22;7731;50.720;6.912;2023-09-19T08:24:59;22.50;99.90
15257;DHT22;7731;50.720;6.912;2023-09-19T08:27:33;22.80;99.90
15257;DHT22;7731;50.720;6.912;2023-09-19T08:30:04;23.00;99.90
15257;DHT22;7731;50.720;6.912;2023-09-19T08:32:38;23.00;99.90
15257;DHT22;7731;50.720;6.912;2023-09-19T08:35:10;22.70;99.90
15257;DHT22;7731;50.720;6.912;2023-09-19T08:37:42;22.20;99.90
15257;DHT22;7731;50.720;6.912;2023-09-19T08:40:16;22.50;99.90
15257;DHT22;7731;50.720;6.912;2023-09-19T08:42:50;23.10;99.90
15257;DHT22;7731;50.720;6.912;2023-09-19T08:45:22;23.30;99.90
15257;DHT22;7731;50.720;6.912;2023-09-19T08:48:00;23.70;99.90
15257;DHT22;7731;50.720;6.912;2023-09-19T08:50:46;23.80;99.90
15257;DHT22;7731;50.720;6.912;2023-09-19T08:53:26;23.70;99.90
15257;DHT22;7731;50.720;6.912;2023-09-19T08:56:03;23.50;99.90
15257;DHT22;7731;50.720;6.912;2023-09-19T08:58:44;23.50;99.90
15257;DHT22;7731;50.720;6.912;2023-09-19T09:01:19;23.80;99.90
15257;DHT22;7731;50.720;6.912;2023-09-19T09:03:53;24.20;99.90
15257;DHT22;7731;50.720;6.912;2023-09-19T09:06:29;23.70;99.90
15257;DHT22;7731;50.720;6.912;2023-09-19T09:09:03;23.80;99.90
15257;DHT22;7731;50.720;6.912;2023-09-19T09:11:40;24.50;99.90
15257;DHT22;7731;50.720;6.912;2023-09-19T09:14:14;24.30;99.90
15257;DHT22;7731;50.720;6.912;2023-09-19T09:16:44;24.50;99.90
15257;DHT22;7731;50.720;6.912;2023-09-19T09:19:16;24.70;99.90
15257;DHT22;7731;50.720;6.912;2023-09-19T09:21:52;24.50;99.90
15257;DHT22;7731;50.720;6.912;2023-09-19T09:24:28;24.60;99.90
15257;DHT22;7731;50.720;6.912;2023-09-19T09:27:05;24.70;99.90
15257;DHT22;7731;50.720;6.912;2023-09-19T09:29:42;24.70;99.90
15257;DHT22;7731;50.720;6.912;2023-09-19T09:32:18;24.80;99.90
15257;DHT22;7731;50.720;6.912;2023-09-19T09:34:52;25.40;99.90
15257;DHT22;7731;50.720;6.912;2023-09-19T09:37:28;25.70;99.90
15257;DHT22;7731;50.720;6.912;2023-09-19T09:40:02;26.00;99.90
15257;DHT22;7731;50.720;6.912;2023-09-19T09:42:49;25.50;99.90
15257;DHT22;7731;50.720;6.912;2023-09-19T09:45:26;24.90;99.90
15257;DHT22;7731;50.720;6.912;2023-09-19T09:48:05;24.90;99.90
15257;DHT22;7731;50.720;6.912;2023-09-19T09:50:47;24.80;99.90
15257;DHT22;7731;50.720;6.912;2023-09-19T09:53:24;24.70;99.90
15257;DHT22;7731;50.720;6.912;2023-09-19T09:56:01;24.40;99.90
15257;DHT22;7731;50.720;6.912;2023-09-19T09:58:38;24.40;99.90
15257;DHT22;7731;50.720;6.912;2023-09-19T10:01:22;24.50;99.90
15257;DHT22;7731;50.720;6.912;2023-09-19T10:03:58;25.10;99.90
15257;DHT22;7731;50.720;6.912;2023-09-19T10:06:40;24.80;99.90
15257;DHT22;7731;50.720;6.912;2023-09-19T10:09:16;24.00;99.90
15257;DHT22;7731;50.720;6.912;2023-09-19T10:11:48;23.70;1.00
15257;DHT22;7731;50.720;6.912;2023-09-19T10:14:37;24.10;99.90
15257;DHT22;7731;50.720;6.912;2023-09-19T10:17:12;23.10;1.00
15257;DHT22;7731;50.720;6.912;2023-09-19T10:19:54;23.50;1.00
15257;DHT22;7731;50.720;6.912;2023-09-19T10:22:34;24.60;99.90
15257;DHT22;7731;50.720;6.912;2023-09-19T10:25:10;24.90;1.00
15257;DHT22;7731;50.720;6.912;2023-09-19T10:27:42;25.60;1.00
15257;DHT22;7731;50.720;6.912;2023-09-19T10:30:16;26.00;99.90
15257;DHT22;7731;50.720;6.912;2023-09-19T10:32:57;26.20;99.90
15257;DHT22;7731;50.720;6.912;2023-09-19T10:35:34;27.10;99.90
15257;DHT22;7731;50.720;6.912;2023-09-19T10:38:11;27.30;99.90
15257;DHT22;7731;50.720;6.912;2023-09-19T10:40:53;26.70;99.90
15257;DHT22;7731;50.720;6.912;2023-09-19T10:43:30;26.60;99.90
15257;DHT22;7731;50.720;6.912;2023-09-19T10:46:07;26.70;99.90
15257;DHT22;7731;50.720;6.912;2023-09-19T10:48:39;26.90;99.90
15257;DHT22;7731;50.720;6.912;2023-09-19T10:51:14;26.80;99.90
15257;DHT22;7731;50.720;6.912;2023-09-19T10:53:52;26.00;99.90
15257;DHT22;7731;50.720;6.912;2023-09-19T10:56:30;25.40;1.00
15257;DHT22;7731;50.720;6.912;2023-09-19T10:59:10;25.40;1.00
15257;DHT22;7731;50.720;6.912;2023-09-19T11:01:48;26.30;99.90
15257;DHT22;7731;50.720;6.912;2023-09-19T11:04:26;26.30;99.90
15257;DHT22;7731;50.720;6.912;2023-09-19T11:07:07;26.40;99.90
15257;DHT22;7731;50.720;6.912;2023-09-19T11:09:46;26.00;1.00
15257;DHT22;7731;50.720;6.912;2023-09-19T11:12:49;26.50;99.90
15257;DHT22;7731;50.720;6.912;2023-09-19T11:18:58;26.10;1.00
15257;DHT22;7731;50.720;6.912;2023-09-19T11:21:53;26.30;1.00
15257;DHT22;7731;50.720;6.912;2023-09-19T11:24:31;25.40;1.00
15257;DHT22;7731;50.720;6.912;2023-09-19T11:27:14;25.20;1.00
15257;DHT22;7731;50.720;6.912;2023-09-19T11:29:47;25.20;1.00
15257;DHT22;7731;50.720;6.912;2023-09-19T11:36:02;25.00;1.00
15257;DHT22;7731;50.720;6.912;2023-09-19T11:38:59;24.80;1.00
15257;DHT22;7731;50.720;6.912;2023-09-19T11:41:40;24.90;1.00
15257;DHT22;7731;50.720;6.912;2023-09-19T11:44:36;24.40;1.00
15257;DHT22;7731;50.720;6.912;2023-09-19T11:47:09;23.90;1.00
15257;DHT22;7731;50.720;6.912;2023-09-19T11:49:40;23.60;1.00
15257;DHT22;7731;50.720;6.912;2023-09-19T11:52:21;23.70;1.00
15257;DHT22;7731;50.720;6.912;2023-09-19T11:54:55;23.80;1.00
15257;DHT22;7731;50.720;6.912;2023-09-19T11:57:27;23.90;1.00
15257;DHT22;7731;50.720;6.912;2023-09-19T12:00:02;24.00;1.00
15257;DHT22;7731;50.720;6.912;2023-09-19T12:02:39;24.20;1.00
15257;DHT22;7731;50.720;6.912;2023-09-19T12:05:19;24.00;1.00
15257;DHT22;7731;50.720;6.912;2023-09-19T12:08:03;24.00;1.00
15257;DHT22;7731;50.720;6.912;2023-09-19T12:10:45;23.90;1.00
15257;DHT22;7731;50.720;6.912;2023-09-19T12:13:19;23.80;1.00
15257;DHT22;7731;50.720;6.912;2023-09-19T12:15:52;23.80;1.00
15257;DHT22;7731;50.720;6.912;2023-09-19T12:18:26;23.60;1.00
15257;DHT22;7731;50.720;6.912;2023-09-19T12:20:57;23.50;1.00
15257;DHT22;7731;50.720;6.912;2023-09-19T12:23:32;23.50;1.00
15257;DHT22;7731;50.720;6.912;2023-09-19T12:26:04;23.30;1.00
15257;DHT22;7731;50.720;6.912;2023-09-19T12:28:41;23.50;1.00
15257;DHT22;7731;50.720;6.912;2023-09-19T12:31:12;23.40;1.00
15257;DHT22;7731;50.720;6.912;2023-09-19T12:33:45;23.40;1.00
15257;DHT22;7731;50.720;6.912;2023-09-19T12:36:22;23.50;1.00
15257;DHT22;7731;50.720;6.912;2023-09-19T12:38:59;23.30;1.00
15257;DHT22;7731;50.720;6.912;2023-09-19T12:41:37;23.20;1.00
15257;DHT22;7731;50.720;6.912;2023-09-19T12:44:10;23.20;1.00
15257;DHT22;7731;50.720;6.912;2023-09-19T12:46:41;23.00;1.00
15257;DHT22;7731;50.720;6.912;2023-09-19T12:49:16;22.80;1.00
15257;DHT22;7731;50.720;6.912;2023-09-19T12:51:47;22.60;1.00
15257;DHT22;7731;50.720;6.912;2023-09-19T12:54:24;22.80;1.00
15257;DHT22;7731;50.720;6.912;2023-09-19T12:56:56;22.80;1.00
15257;DHT22;7731;50.720;6.912;2023-09-19T12:59:30;22.70;1.00
15257;DHT22;7731;50.720;6.912;2023-09-19T13:02:06;22.70;1.00
15257;DHT22;7731;50.720;6.912;2023-09-19T13:04:52;22.80;1.00
15257;DHT22;7731;50.720;6.912;2023-09-19T13:07:40;22.70;1.00
15257;DHT22;7731;50.720;6.912;2023-09-19T13:10:20;22.50;1.00
15257;DHT22;7731;50.720;6.912;2023-09-19T13:12:51;22.50;1.00
15257;DHT22;7731;50.720;6.912;2023-09-19T13:15:21;22.40;1.00
15257;DHT22;7731;50.720;6.912;2023-09-19T13:17:54;22.40;1.00
15257;DHT22;7731;50.720;6.912;2023-09-19T13:20:28;22.40;1.00
15257;DHT22;7731;50.720;6.912;2023-09-19T13:23:26;22.40;1.00
15257;DHT22;7731;50.720;6.912;2023-09-19T13:26:01;22.50;1.00
15257;DHT22;7731;50.720;6.912;2023-09-19T13:28:33;22.50;1.00
15257;DHT22;7731;50.720;6.912;2023-09-19T13:31:04;22.60;1.00
15257;DHT22;7731;50.720;6.912;2023-09-19T13:33:34;22.50;1.00
15257;DHT22;7731;50.720;6.912;2023-09-19T13:36:05;22.70;1.00
15257;DHT22;7731;50.720;6.912;2023-09-19T13:38:36;22.80;1.00
15257;DHT22;7731;50.720;6.912;2023-09-19T13:41:09;23.10;1.00
15257;DHT22;7731;50.720;6.912;2023-09-19T13:43:40;23.10;1.00
15257;DHT22;7731;50.720;6.912;2023-09-19T13:46:11;23.10;1.00
15257;DHT22;7731;50.720;6.912;2023-09-19T13:48:45;23.10;1.00
15257;DHT22;7731;50.720;6.912;2023-09-19T13:51:15;22.90;1.00
15257;DHT22;7731;50.720;6.912;2023-09-19T13:53:46;22.80;1.00
15257;DHT22;7731;50.720;6.912;2023-09-19T13:56:20;22.60;1.00
15257;DHT22;7731;50.720;6.912;2023-09-19T13:58:51;22.40;1.00
15257;DHT22;7731;50.720;6.912;2023-09-19T14:01:21;22.30;1.00
15257;DHT22;7731;50.720;6.912;2023-09-19T14:03:54;22.20;1.00
15257;DHT22;7731;50.720;6.912;2023-09-19T14:06:25;22.10;1.00
15257;DHT22;7731;50.720;6.912;2023-09-19T14:08:55;21.90;1.00
15257;DHT22;7731;50.720;6.912;2023-09-19T14:11:30;21.80;1.00
15257;DHT22;7731;50.720;6.912;2023-09-19T14:14:00;21.70;1.00
15257;DHT22;7731;50.720;6.912;2023-09-19T14:16:32;21.60;1.00
15257;DHT22;7731;50.720;6.912;2023-09-19T14:19:02;21.60;1.00
15257;DHT22;7731;50.720;6.912;2023-09-19T14:21:32;21.60;1.00
15257;DHT22;7731;50.720;6.912;2023-09-19T14:24:04;21.60;1.00
15257;DHT22;7731;50.720;6.912;2023-09-19T14:26:38;21.40;1.00
15257;DHT22;7731;50.720;6.912;2023-09-19T14:29:09;21.50;1.00
15257;DHT22;7731;50.720;6.912;2023-09-19T14:31:40;21.50;1.00
15257;DHT22;7731;50.720;6.912;2023-09-19T14:34:11;21.50;1.00
15257;DHT22;7731;50.720;6.912;2023-09-19T14:36:42;21.60;1.00
15257;DHT22;7731;50.720;6.912;2023-09-19T14:39:12;21.70;1.00
15257;DHT22;7731;50.720;6.912;2023-09-19T14:41:49;21.80;1.00
15257;DHT22;7731;50.720;6.912;2023-09-19T14:44:22;22.00;1.00
15257;DHT22;7731;50.720;6.912;2023-09-19T14:46:53;21.90;1.00
15257;DHT22;7731;50.720;6.912;2023-09-19T14:49:24;21.80;1.00
15257;DHT22;7731;50.720;6.912;2023-09-19T14:51:54;21.60;1.00
15257;DHT22;7731;50.720;6.912;2023-09-19T14:54:24;21.50;1.00
15257;DHT22;7731;50.720;6.912;2023-09-19T14:56:59;21.50;1.00
15257;DHT22;7731;50.720;6.912;2023-09-19T14:59:37;21.40;1.00
15257;DHT22;7731;50.720;6.912;2023-09-19T15:02:08;21.40;1.00
15257;DHT22;7731;50.720;6.912;2023-09-19T15:04:45;21.30;1.00
15257;DHT22;7731;50.720;6.912;2023-09-19T15:07:18;21.20;1.00
15257;DHT22;7731;50.720;6.912;2023-09-19T15:09:48;21.30;1.00
15257;DHT22;7731;50.720;6.912;2023-09-19T15:12:21;21.30;1.00
15257;DHT22;7731;50.720;6.912;2023-09-19T15:14:51;21.30;1.00
15257;DHT22;7731;50.720;6.912;2023-09-19T15:17:22;21.20;1.00
15257;DHT22;7731;50.720;6.912;2023-09-19T15:19:52;21.20;1.00
15257;DHT22;7731;50.720;6.912;2023-09-19T15:22:23;21.20;1.00
15257;DHT22;7731;50.720;6.912;2023-09-19T15:24:57;21.10;1.00
15257;DHT22;7731;50.720;6.912;2023-09-19T15:27:32;21.00;1.00
15257;DHT22;7731;50.720;6.912;2023-09-19T15:30:06;21.00;1.00
15257;DHT22;7731;50.720;6.912;2023-09-19T15:32:38;21.00;1.00
15257;DHT22;7731;50.720;6.912;2023-09-19T15:35:08;21.10;1.00
15257;DHT22;7731;50.720;6.912;2023-09-19T15:37:41;21.10;1.00
15257;DHT22;7731;50.720;6.912;2023-09-19T15:40:11;21.10;1.00
15257;DHT22;7731;50.720;6.912;2023-09-19T15:42:46;20.90;1.00
15257;DHT22;7731;50.720;6.912;2023-09-19T15:45:19;21.00;1.00
15257;DHT22;7731;50.720;6.912;2023-09-19T15:47:49;21.00;1.00
15257;DHT22;7731;50.720;6.912;2023-09-19T15:50:23;20.90;1.00
15257;DHT22;7731;50.720;6.912;2023-09-19T15:52:53;20.80;1.00
15257;DHT22;7731;50.720;6.912;2023-09-19T15:55:25;20.80;1.00
15257;DHT22;7731;50.720;6.912;2023-09-19T15:57:59;20.90;1.00
15257;DHT22;7731;50.720;6.912;2023-09-19T16:00:32;20.90;1.00
15257;DHT22;7731;50.720;6.912;2023-09-19T16:03:04;20.90;1.00
15257;DHT22;7731;50.720;6.912;2023-09-19T16:05:37;20.90;1.00
15257;DHT22;7731;50.720;6.912;2023-09-19T16:08:08;20.90;1.00
15257;DHT22;7731;50.720;6.912;2023-09-19T16:10:38;21.00;1.00
15257;DHT22;7731;50.720;6.912;2023-09-19T16:13:11;20.90;1.00
15257;DHT22;7731;50.720;6.912;2023-09-19T16:15:42;20.80;1.00
15257;DHT22;7731;50.720;6.912;2023-09-19T16:18:13;20.70;1.00
15257;DHT22;7731;50.720;6.912;2023-09-19T16:20:43;20.60;1.00
15257;DHT22;7731;50.720;6.912;2023-09-19T16:23:14;20.50;1.00
15257;DHT22;7731;50.720;6.912;2023-09-19T16:25:44;20.50;1.00
15257;DHT22;7731;50.720;6.912;2023-09-19T16:28:17;20.50;1.00
15257;DHT22;7731;50.720;6.912;2023-09-19T16:30:49;20.50;1.00
15257;DHT22;7731;50.720;6.912;2023-09-19T16:33:20;20.30;1.00
15257;DHT22;7731;50.720;6.912;2023-09-19T16:35:50;20.20;1.00
15257;DHT22;7731;50.720;6.912;2023-09-19T16:38:24;20.20;1.00
15257;DHT22;7731;50.720;6.912;2023-09-19T16:40:56;20.10;1.00
15257;DHT22;7731;50.720;6.912;2023-09-19T16:43:36;20.00;1.00
15257;DHT22;7731;50.720;6.912;2023-09-19T16:46:08;19.90;1.00